CheckWX is a tool to help pilots better visualize weather data.  It is not intended as a substitute for an official pre-flight weather briefing.

03:53:00 UTC

KMWC METAR
Lawrence J Timmerman Airport
Milwaukee, Wisconsin, USA
Current

18 mins ago

KMWC 230335Z AUTO 24003KT 10SM CLR 17/09 A3010 RMK AO2
Observed
Jul-23 @ 03:35 UTC
Wind
  • 240° at 3 KTS
Visibility
10 SM
Flight Rules
VFR
Cloud Levels
  • Clear skies
Temperature
17°C / 63°F
Dewpoint
C / 48°F
Humidity
59%
Altimeter
30.1" Hg
Pressure
1019.32 hPa
Previous

38 mins ago

KMWC 230315Z AUTO 25003KT 10SM CLR 17/09 A3010 RMK AO2
Observed
Jul-23 @ 03:15 UTC
Wind
  • 250° at 3 KTS
Visibility
10 SM
Flight Rules
VFR
Cloud Levels
  • Clear skies
Temperature
17°C / 63°F
Dewpoint
C / 48°F
Humidity
59%
Altimeter
30.1" Hg
Pressure
1019.32 hPa
Previous

58 mins ago

KMWC 230255Z AUTO 00000KT 10SM CLR 18/09 A3010 RMK AO2
Observed
Jul-23 @ 02:55 UTC
Visibility
10 SM
Flight Rules
VFR
Cloud Levels
  • Clear skies
Temperature
18°C / 64°F
Dewpoint
C / 48°F
Humidity
56%
Altimeter
30.1" Hg
Pressure
1019.32 hPa